sensor_id;sensor_type;location;lat;lon;timestamp;temperature;humidity
79140;HTU21D;68546;59.142;37.948;2023-04-15T00:00:54;1.71;26.80
79140;HTU21D;68546;59.142;37.948;2023-04-15T00:03:20;1.70;26.86
79140;HTU21D;68546;59.142;37.948;2023-04-15T00:05:47;1.68;26.93
79140;HTU21D;68546;59.142;37.948;2023-04-15T00:08:13;1.68;26.98
79140;HTU21D;68546;59.142;37.948;2023-04-15T00:10:40;1.66;27.01
79140;HTU21D;68546;59.142;37.948;2023-04-15T00:13:09;1.65;27.08
79140;HTU21D;68546;59.142;37.948;2023-04-15T00:15:35;1.64;27.12
79140;HTU21D;68546;59.142;37.948;2023-04-15T00:18:02;1.63;27.14
79140;HTU21D;68546;59.142;37.948;2023-04-15T00:20:29;1.62;27.20
79140;HTU21D;68546;59.142;37.948;2023-04-15T00:22:56;1.62;27.23
79140;HTU21D;68546;59.142;37.948;2023-04-15T00:25:23;1.60;27.27
79140;HTU21D;68546;59.142;37.948;2023-04-15T00:27:50;1.60;27.28
79140;HTU21D;68546;59.142;37.948;2023-04-15T00:30:16;1.57;27.33
79140;HTU21D;68546;59.142;37.948;2023-04-15T00:32:42;1.54;27.41
79140;HTU21D;68546;59.142;37.948;2023-04-15T00:35:09;1.54;27.42
79140;HTU21D;68546;59.142;37.948;2023-04-15T00:37:35;1.53;27.43
79140;HTU21D;68546;59.142;37.948;2023-04-15T00:40:02;1.52;27.48
79140;HTU21D;68546;59.142;37.948;2023-04-15T00:42:33;1.51;27.54
79140;HTU21D;68546;59.142;37.948;2023-04-15T00:45:03;1.50;27.56
79140;HTU21D;68546;59.142;37.948;2023-04-15T00:47:30;1.49;27.62
79140;HTU21D;68546;59.142;37.948;2023-04-15T00:49:58;1.49;27.64
79140;HTU21D;68546;59.142;37.948;2023-04-15T00:52:24;1.47;27.69
79140;HTU21D;68546;59.142;37.948;2023-04-15T00:54:52;1.48;27.75
79140;HTU21D;68546;59.142;37.948;2023-04-15T00:57:20;1.47;27.78
79140;HTU21D;68546;59.142;37.948;2023-04-15T00:59:48;1.46;27.82
79140;HTU21D;68546;59.142;37.948;2023-04-15T01:02:14;1.45;27.84
79140;HTU21D;68546;59.142;37.948;2023-04-15T01:04:41;1.46;27.91
79140;HTU21D;68546;59.142;37.948;2023-04-15T01:07:08;1.46;27.92
79140;HTU21D;68546;59.142;37.948;2023-04-15T01:09:34;1.45;27.97
79140;HTU21D;68546;59.142;37.948;2023-04-15T01:12:00;1.45;28.06
79140;HTU21D;68546;59.142;37.948;2023-04-15T01:14:30;1.43;28.07
79140;HTU21D;68546;59.142;37.948;2023-04-15T01:16:56;1.43;28.14
79140;HTU21D;68546;59.142;37.948;2023-04-15T01:19:23;1.41;28.14
79140;HTU21D;68546;59.142;37.948;2023-04-15T01:21:49;1.41;28.17
79140;HTU21D;68546;59.142;37.948;2023-04-15T01:24:17;1.41;28.19
79140;HTU21D;68546;59.142;37.948;2023-04-15T01:26:44;1.39;28.19
79140;HTU21D;68546;59.142;37.948;2023-04-15T01:29:11;1.39;28.31
79140;HTU21D;68546;59.142;37.948;2023-04-15T01:31:38;1.39;28.34
79140;HTU21D;68546;59.142;37.948;2023-04-15T01:34:23;1.37;28.36
79140;HTU21D;68546;59.142;37.948;2023-04-15T01:37:11;1.35;28.36
79140;HTU21D;68546;59.142;37.948;2023-04-15T01:39:38;1.33;28.40
79140;HTU21D;68546;59.142;37.948;2023-04-15T01:42:04;1.31;28.49
79140;HTU21D;68546;59.142;37.948;2023-04-15T01:44:31;1.31;28.64
79140;HTU21D;68546;59.142;37.948;2023-04-15T01:46:59;1.28;28.61
79140;HTU21D;68546;59.142;37.948;2023-04-15T01:49:27;1.27;28.61
79140;HTU21D;68546;59.142;37.948;2023-04-15T01:51:55;1.26;28.62
79140;HTU21D;68546;59.142;37.948;2023-04-15T01:54:22;1.24;28.68
79140;HTU21D;68546;59.142;37.948;2023-04-15T01:56:52;1.23;28.71
79140;HTU21D;68546;59.142;37.948;2023-04-15T01:59:19;1.22;28.76
79140;HTU21D;68546;59.142;37.948;2023-04-15T02:01:47;1.21;28.86
79140;HTU21D;68546;59.142;37.948;2023-04-15T02:04:15;1.22;28.93
79140;HTU21D;68546;59.142;37.948;2023-04-15T02:06:43;1.22;28.99
79140;HTU21D;68546;59.142;37.948;2023-04-15T02:09:11;1.21;29.08
79140;HTU21D;68546;59.142;37.948;2023-04-15T02:11:38;1.21;29.22
79140;HTU21D;68546;59.142;37.948;2023-04-15T02:14:06;1.20;29.24
79140;HTU21D;68546;59.142;37.948;2023-04-15T02:16:33;1.19;29.31
79140;HTU21D;68546;59.142;37.948;2023-04-15T02:19:01;1.20;29.35
79140;HTU21D;68546;59.142;37.948;2023-04-15T02:21:30;1.19;29.40
79140;HTU21D;68546;59.142;37.948;2023-04-15T02:23:58;1.19;29.42
79140;HTU21D;68546;59.142;37.948;2023-04-15T02:26:27;1.18;29.47
79140;HTU21D;68546;59.142;37.948;2023-04-15T02:28:56;1.18;29.51
79140;HTU21D;68546;59.142;37.948;2023-04-15T02:31:24;1.19;29.48
79140;HTU21D;68546;59.142;37.948;2023-04-15T02:33:52;1.18;29.58
79140;HTU21D;68546;59.142;37.948;2023-04-15T02:36:20;1.19;29.58
79140;HTU21D;68546;59.142;37.948;2023-04-15T02:38:48;1.19;29.62
79140;HTU21D;68546;59.142;37.948;2023-04-15T02:41:16;1.20;29.64
79140;HTU21D;68546;59.142;37.948;2023-04-15T02:43:46;1.21;29.61
79140;HTU21D;68546;59.142;37.948;2023-04-15T02:46:15;1.22;29.62
79140;HTU21D;68546;59.142;37.948;2023-04-15T02:48:43;1.23;29.65
79140;HTU21D;68546;59.142;37.948;2023-04-15T02:51:19;1.24;29.68
79140;HTU21D;68546;59.142;37.948;2023-04-15T02:53:48;1.27;29.67
79140;HTU21D;68546;59.142;37.948;2023-04-15T02:56:16;1.39;29.73
79140;HTU21D;68546;59.142;37.948;2023-04-15T02:58:44;1.54;29.81
79140;HTU21D;68546;59.142;37.948;2023-04-15T03:01:12;1.70;29.83
79140;HTU21D;68546;59.142;37.948;2023-04-15T03:03:41;1.87;29.82
79140;HTU21D;68546;59.142;37.948;2023-04-15T03:06:09;2.05;29.81
79140;HTU21D;68546;59.142;37.948;2023-04-15T03:08:37;2.23;29.78
79140;HTU21D;68546;59.142;37.948;2023-04-15T03:11:04;2.39;29.69
79140;HTU21D;68546;59.142;37.948;2023-04-15T03:13:34;2.52;29.58
79140;HTU21D;68546;59.142;37.948;2023-04-15T03:16:11;2.61;29.47
79140;HTU21D;68546;59.142;37.948;2023-04-15T03:18:38;2.69;29.32
79140;HTU21D;68546;59.142;37.948;2023-04-15T03:21:07;2.74;29.23
79140;HTU21D;68546;59.142;37.948;2023-04-15T03:23:37;2.83;29.17
79140;HTU21D;68546;59.142;37.948;2023-04-15T03:26:05;2.89;29.17
79140;HTU21D;68546;59.142;37.948;2023-04-15T03:28:34;3.01;29.16
79140;HTU21D;68546;59.142;37.948;2023-04-15T03:31:02;3.11;29.10
79140;HTU21D;68546;59.142;37.948;2023-04-15T03:33:30;3.21;29.02
79140;HTU21D;68546;59.142;37.948;2023-04-15T03:35:58;3.31;28.98
79140;HTU21D;68546;59.142;37.948;2023-04-15T03:38:25;3.42;28.97
79140;HTU21D;68546;59.142;37.948;2023-04-15T03:40:53;3.52;28.90
79140;HTU21D;68546;59.142;37.948;2023-04-15T03:43:20;3.61;28.84
79140;HTU21D;68546;59.142;37.948;2023-04-15T03:45:48;3.69;28.78
79140;HTU21D;68546;59.142;37.948;2023-04-15T03:48:16;3.77;28.72
79140;HTU21D;68546;59.142;37.948;2023-04-15T03:50:43;3.86;28.65
79140;HTU21D;68546;59.142;37.948;2023-04-15T03:53:11;3.93;28.55
79140;HTU21D;68546;59.142;37.948;2023-04-15T03:55:38;3.99;28.44
79140;HTU21D;68546;59.142;37.948;2023-04-15T03:58:06;4.05;28.32
79140;HTU21D;68546;59.142;37.948;2023-04-15T04:00:33;4.10;28.25
79140;HTU21D;68546;59.142;37.948;2023-04-15T04:03:01;4.16;28.16
79140;HTU21D;68546;59.142;37.948;2023-04-15T04:05:29;4.20;28.10
79140;HTU21D;68546;59.142;37.948;2023-04-15T04:07:57;4.23;28.05
79140;HTU21D;68546;59.142;37.948;2023-04-15T04:10:25;4.29;28.01
79140;HTU21D;68546;59.142;37.948;2023-04-15T04:12:53;4.32;27.98
79140;HTU21D;68546;59.142;37.948;2023-04-15T04:15:20;4.34;27.94
79140;HTU21D;68546;59.142;37.948;2023-04-15T04:17:48;4.36;27.85
79140;HTU21D;68546;59.142;37.948;2023-04-15T04:20:17;4.39;27.84
79140;HTU21D;68546;59.142;37.948;2023-04-15T04:22:44;4.44;27.84
79140;HTU21D;68546;59.142;37.948;2023-04-15T04:25:12;4.48;27.84
79140;HTU21D;68546;59.142;37.948;2023-04-15T04:27:39;4.52;27.82
79140;HTU21D;68546;59.142;37.948;2023-04-15T04:30:07;4.57;27.71
79140;HTU21D;68546;59.142;37.948;2023-04-15T04:32:35;4.59;27.64
79140;HTU21D;68546;59.142;37.948;2023-04-15T04:35:03;4.61;27.58
79140;HTU21D;68546;59.142;37.948;2023-04-15T04:37:31;4.62;27.54
79140;HTU21D;68546;59.142;37.948;2023-04-15T04:39:58;4.66;27.44
79140;HTU21D;68546;59.142;37.948;2023-04-15T04:42:26;4.68;27.41
79140;HTU21D;68546;59.142;37.948;2023-04-15T04:44:53;4.71;27.36
79140;HTU21D;68546;59.142;37.948;2023-04-15T04:47:21;4.73;27.28
79140;HTU21D;68546;59.142;37.948;2023-04-15T04:49:48;4.75;27.23
79140;HTU21D;68546;59.142;37.948;2023-04-15T04:52:16;4.76;27.19
79140;HTU21D;68546;59.142;37.948;2023-04-15T04:54:44;4.79;27.26
79140;HTU21D;68546;59.142;37.948;2023-04-15T04:57:12;4.79;27.26
79140;HTU21D;68546;59.142;37.948;2023-04-15T04:59:40;4.81;27.18
79140;HTU21D;68546;59.142;37.948;2023-04-15T05:02:07;4.80;26.99
79140;HTU21D;68546;59.142;37.948;2023-04-15T05:04:35;4.80;26.92
79140;HTU21D;68546;59.142;37.948;2023-04-15T05:07:03;4.79;26.87
79140;HTU21D;68546;59.142;37.948;2023-04-15T05:09:30;4.81;26.79
79140;HTU21D;68546;59.142;37.948;2023-04-15T05:11:59;4.84;26.78
79140;HTU21D;68546;59.142;37.948;2023-04-15T05:14:27;4.88;26.69
79140;HTU21D;68546;59.142;37.948;2023-04-15T05:16:55;4.90;26.63
79140;HTU21D;68546;59.142;37.948;2023-04-15T05:19:22;4.94;26.50
79140;HTU21D;68546;59.142;37.948;2023-04-15T05:21:50;4.96;26.39
79140;HTU21D;68546;59.142;37.948;2023-04-15T05:24:18;5.01;26.31
79140;HTU21D;68546;59.142;37.948;2023-04-15T05:26:48;5.05;26.25
79140;HTU21D;68546;59.142;37.948;2023-04-15T05:29:15;5.08;26.17
79140;HTU21D;68546;59.142;37.948;2023-04-15T05:31:43;5.12;26.13
79140;HTU21D;68546;59.142;37.948;2023-04-15T05:34:12;5.17;26.11
79140;HTU21D;68546;59.142;37.948;2023-04-15T05:36:43;5.21;26.07
79140;HTU21D;68546;59.142;37.948;2023-04-15T05:39:10;5.25;25.98
79140;HTU21D;68546;59.142;37.948;2023-04-15T05:41:38;5.31;25.87
79140;HTU21D;68546;59.142;37.948;2023-04-15T05:44:05;5.34;25.83
79140;HTU21D;68546;59.142;37.948;2023-04-15T05:46:35;5.41;25.69
79140;HTU21D;68546;59.142;37.948;2023-04-15T05:49:03;5.43;25.56
79140;HTU21D;68546;59.142;37.948;2023-04-15T05:51:30;5.48;25.50
79140;HTU21D;68546;59.142;37.948;2023-04-15T05:53:58;5.50;25.34
79140;HTU21D;68546;59.142;37.948;2023-04-15T05:56:26;5.56;25.17
79140;HTU21D;68546;59.142;37.948;2023-04-15T05:58:55;5.61;25.14
79140;HTU21D;68546;59.142;37.948;2023-04-15T06:01:23;5.65;24.97
79140;HTU21D;68546;59.142;37.948;2023-04-15T06:03:51;5.69;24.89
79140;HTU21D;68546;59.142;37.948;2023-04-15T06:06:19;5.74;24.79
79140;HTU21D;68546;59.142;37.948;2023-04-15T06:08:50;5.77;24.78
79140;HTU21D;68546;59.142;37.948;2023-04-15T06:11:19;5.82;24.77
79140;HTU21D;68546;59.142;37.948;2023-04-15T06:13:48;5.89;24.76
79140;HTU21D;68546;59.142;37.948;2023-04-15T06:16:16;5.93;24.72
79140;HTU21D;68546;59.142;37.948;2023-04-15T06:18:43;5.97;24.53
79140;HTU21D;68546;59.142;37.948;2023-04-15T06:21:11;6.01;24.45
79140;HTU21D;68546;59.142;37.948;2023-04-15T06:23:39;6.06;24.35
79140;HTU21D;68546;59.142;37.948;2023-04-15T06:26:07;6.10;24.25
79140;HTU21D;68546;59.142;37.948;2023-04-15T06:28:35;6.16;24.27
79140;HTU21D;68546;59.142;37.948;2023-04-15T06:31:02;6.22;24.14
79140;HTU21D;68546;59.142;37.948;2023-04-15T06:33:30;6.29;24.05
79140;HTU21D;68546;59.142;37.948;2023-04-15T06:35:59;6.36;23.92
79140;HTU21D;68546;59.142;37.948;2023-04-15T06:38:26;6.40;23.80
79140;HTU21D;68546;59.142;37.948;2023-04-15T06:40:54;6.44;23.72
79140;HTU21D;68546;59.142;37.948;2023-04-15T06:43:25;6.50;23.72
79140;HTU21D;68546;59.142;37.948;2023-04-15T06:45:52;6.54;23.59
79140;HTU21D;68546;59.142;37.948;2023-04-15T06:48:20;6.58;23.56
79140;HTU21D;68546;59.142;37.948;2023-04-15T06:50:48;6.61;23.46
79140;HTU21D;68546;59.142;37.948;2023-04-15T06:53:16;6.65;23.37
79140;HTU21D;68546;59.142;37.948;2023-04-15T06:55:43;6.70;23.26
79140;HTU21D;68546;59.142;37.948;2023-04-15T06:58:11;6.76;23.03
79140;HTU21D;68546;59.142;37.948;2023-04-15T07:00:38;6.80;22.92
79140;HTU21D;68546;59.142;37.948;2023-04-15T07:03:07;6.85;22.83
79140;HTU21D;68546;59.142;37.948;2023-04-15T07:05:37;6.91;22.62
79140;HTU21D;68546;59.142;37.948;2023-04-15T07:08:05;6.97;22.66
79140;HTU21D;68546;59.142;37.948;2023-04-15T07:10:33;7.04;22.69
79140;HTU21D;68546;59.142;37.948;2023-04-15T07:13:01;7.11;22.72
79140;HTU21D;68546;59.142;37.948;2023-04-15T07:15:29;7.17;22.71
79140;HTU21D;68546;59.142;37.948;2023-04-15T07:17:56;7.23;22.52
79140;HTU21D;68546;59.142;37.948;2023-04-15T07:20:24;7.29;22.43
79140;HTU21D;68546;59.142;37.948;2023-04-15T07:22:54;7.35;22.24
79140;HTU21D;68546;59.142;37.948;2023-04-15T07:25:21;7.40;21.98
79140;HTU21D;68546;59.142;37.948;2023-04-15T07:27:52;7.42;21.87
79140;HTU21D;68546;59.142;37.948;2023-04-15T07:30:22;7.45;21.69
79140;HTU21D;68546;59.142;37.948;2023-04-15T07:32:51;7.49;21.50
79140;HTU21D;68546;59.142;37.948;2023-04-15T07:35:19;7.54;21.54
79140;HTU21D;68546;59.142;37.948;2023-04-15T07:37:48;7.58;21.55
79140;HTU21D;68546;59.142;37.948;2023-04-15T07:40:17;7.63;21.38
79140;HTU21D;68546;59.142;37.948;2023-04-15T07:42:45;7.69;21.09
79140;HTU21D;68546;59.142;37.948;2023-04-15T07:45:14;7.72;20.96
79140;HTU21D;68546;59.142;37.948;2023-04-15T07:47:42;7.77;20.97
79140;HTU21D;68546;59.142;37.948;2023-04-15T07:50:09;7.81;21.05
79140;HTU21D;68546;59.142;37.948;2023-04-15T07:52:37;7.86;20.85
79140;HTU21D;68546;59.142;37.948;2023-04-15T07:55:08;7.91;20.76
79140;HTU21D;68546;59.142;37.948;2023-04-15T07:57:36;7.96;20.55
79140;HTU21D;68546;59.142;37.948;2023-04-15T08:00:04;8.01;20.36
79140;HTU21D;68546;59.142;37.948;2023-04-15T08:02:47;8.06;20.12
79140;HTU21D;68546;59.142;37.948;2023-04-15T08:05:15;8.14;20.12
79140;HTU21D;68546;59.142;37.948;2023-04-15T08:07:45;8.16;19.92
79140;HTU21D;68546;59.142;37.948;2023-04-15T08:10:13;8.22;19.80
79140;HTU21D;68546;59.142;37.948;2023-04-15T08:12:41;8.26;19.41
79140;HTU21D;68546;59.142;37.948;2023-04-15T08:15:09;8.30;19.68
79140;HTU21D;68546;59.142;37.948;2023-04-15T08:17:36;8.35;19.63
79140;HTU21D;68546;59.142;37.948;2023-04-15T08:20:05;8.42;19.58
79140;HTU21D;68546;59.142;37.948;2023-04-15T08:22:32;8.49;19.63
79140;HTU21D;68546;59.142;37.948;2023-04-15T08:25:00;8.56;19.50
79140;HTU21D;68546;59.142;37.948;2023-04-15T08:27:28;8.61;19.36
79140;HTU21D;68546;59.142;37.948;2023-04-15T08:29:55;8.66;19.22
79140;HTU21D;68546;59.142;37.948;2023-04-15T08:32:23;8.71;19.20
79140;HTU21D;68546;59.142;37.948;2023-04-15T08:34:52;8.76;19.05
79140;HTU21D;68546;59.142;37.948;2023-04-15T08:37:20;8.80;19.01
79140;HTU21D;68546;59.142;37.948;2023-04-15T08:39:49;8.86;18.96
79140;HTU21D;68546;59.142;37.948;2023-04-15T08:42:19;8.91;18.83
79140;HTU21D;68546;59.142;37.948;2023-04-15T08:44:50;8.94;18.73
79140;HTU21D;68546;59.142;37.948;2023-04-15T08:47:20;8.96;18.57
79140;HTU21D;68546;59.142;37.948;2023-04-15T08:49:52;8.98;18.54
79140;HTU21D;68546;59.142;37.948;2023-04-15T08:52:22;9.01;18.38
79140;HTU21D;68546;59.142;37.948;2023-04-15T08:54:55;9.01;18.20
79140;HTU21D;68546;59.142;37.948;2023-04-15T08:57:26;9.02;18.06
79140;HTU21D;68546;59.142;37.948;2023-04-15T08:59:57;9.03;17.83
79140;HTU21D;68546;59.142;37.948;2023-04-15T09:02:25;9.05;17.80
79140;HTU21D;68546;59.142;37.948;2023-04-15T09:04:53;9.07;17.88
79140;HTU21D;68546;59.142;37.948;2023-04-15T09:07:21;9.10;17.70
79140;HTU21D;68546;59.142;37.948;2023-04-15T09:09:48;9.10;17.51
79140;HTU21D;68546;59.142;37.948;2023-04-15T09:12:16;9.11;17.32
79140;HTU21D;68546;59.142;37.948;2023-04-15T09:14:45;9.15;17.39
79140;HTU21D;68546;59.142;37.948;2023-04-15T09:17:18;9.17;17.32
79140;HTU21D;68546;59.142;37.948;2023-04-15T09:19:46;9.20;17.25
79140;HTU21D;68546;59.142;37.948;2023-04-15T09:22:14;9.21;17.24
79140;HTU21D;68546;59.142;37.948;2023-04-15T09:24:42;9.22;17.36
79140;HTU21D;68546;59.142;37.948;2023-04-15T09:27:09;9.25;17.35
79140;HTU21D;68546;59.142;37.948;2023-04-15T09:29:37;9.27;17.25
79140;HTU21D;68546;59.142;37.948;2023-04-15T09:32:13;9.32;17.19
79140;HTU21D;68546;59.142;37.948;2023-04-15T09:34:41;9.33;17.14
79140;HTU21D;68546;59.142;37.948;2023-04-15T09:37:10;9.34;17.06
79140;HTU21D;68546;59.142;37.948;2023-04-15T09:39:50;9.34;17.06
79140;HTU21D;68546;59.142;37.948;2023-04-15T09:42:18;9.35;17.00
79140;HTU21D;68546;59.142;37.948;2023-04-15T09:44:52;9.35;16.97
79140;HTU21D;68546;59.142;37.948;2023-04-15T09:47:30;9.37;16.94
79140;HTU21D;68546;59.142;37.948;2023-04-15T09:49:59;9.37;16.87
79140;HTU21D;68546;59.142;37.948;2023-04-15T09:52:27;9.38;16.87
79140;HTU21D;68546;59.142;37.948;2023-04-15T09:54:59;9.39;16.80
79140;HTU21D;68546;59.142;37.948;2023-04-15T09:57:37;9.41;16.74
79140;HTU21D;68546;59.142;37.948;2023-04-15T10:00:05;9.41;16.64
79140;HTU21D;68546;59.142;37.948;2023-04-15T10:02:34;9.44;16.54
79140;HTU21D;68546;59.142;37.948;2023-04-15T10:05:03;9.42;16.66
79140;HTU21D;68546;59.142;37.948;2023-04-15T10:07:31;9.45;16.68
79140;HTU21D;68546;59.142;37.948;2023-04-15T10:09:59;9.47;16.54
79140;HTU21D;68546;59.142;37.948;2023-04-15T10:12:28;9.46;16.51
79140;HTU21D;68546;59.142;37.948;2023-04-15T10:15:03;9.48;16.48
79140;HTU21D;68546;59.142;37.948;2023-04-15T10:17:32;9.49;16.51
79140;HTU21D;68546;59.142;37.948;2023-04-15T10:20:03;9.51;16.44
79140;HTU21D;68546;59.142;37.948;2023-04-15T10:22:31;9.53;16.47
79140;HTU21D;68546;59.142;37.948;2023-04-15T10:24:59;9.55;16.45
79140;HTU21D;68546;59.142;37.948;2023-04-15T10:27:28;9.57;16.39
79140;HTU21D;68546;59.142;37.948;2023-04-15T10:29:56;9.60;16.38
79140;HTU21D;68546;59.142;37.948;2023-04-15T10:32:26;9.63;16.46
79140;HTU21D;68546;59.142;37.948;2023-04-15T10:34:54;9.66;16.44
79140;HTU21D;68546;59.142;37.948;2023-04-15T10:37:36;9.69;16.42
79140;HTU21D;68546;59.142;37.948;2023-04-15T10:40:24;9.72;16.49
79140;HTU21D;68546;59.142;37.948;2023-04-15T10:43:01;9.75;16.46
79140;HTU21D;68546;59.142;37.948;2023-04-15T10:45:34;9.77;16.46
79140;HTU21D;68546;59.142;37.948;2023-04-15T10:48:08;9.81;16.42
79140;HTU21D;68546;59.142;37.948;2023-04-15T10:50:36;9.83;16.52
79140;HTU21D;68546;59.142;37.948;2023-04-15T10:53:04;9.88;16.50
79140;HTU21D;68546;59.142;37.948;2023-04-15T10:55:32;9.91;16.36
79140;HTU21D;68546;59.142;37.948;2023-04-15T10:58:01;9.94;16.23
79140;HTU21D;68546;59.142;37.948;2023-04-15T11:00:30;9.96;16.19
79140;HTU21D;68546;59.142;37.948;2023-04-15T11:03:04;9.97;16.18
79140;HTU21D;68546;59.142;37.948;2023-04-15T11:05:49;10.00;16.09
79140;HTU21D;68546;59.142;37.948;2023-04-15T11:08:17;10.04;16.16
79140;HTU21D;68546;59.142;37.948;2023-04-15T11:13:17;10.08;16.17
79140;HTU21D;68546;59.142;37.948;2023-04-15T11:15:48;10.11;16.13
79140;HTU21D;68546;59.142;37.948;2023-04-15T11:18:18;10.12;16.22
79140;HTU21D;68546;59.142;37.948;2023-04-15T11:20:48;10.15;15.97
79140;HTU21D;68546;59.142;37.948;2023-04-15T11:23:40;10.18;16.06
79140;HTU21D;68546;59.142;37.948;2023-04-15T11:26:13;10.18;15.92
79140;HTU21D;68546;59.142;37.948;2023-04-15T11:28:43;10.22;16.03
79140;HTU21D;68546;59.142;37.948;2023-04-15T11:31:17;10.24;15.93
79140;HTU21D;68546;59.142;37.948;2023-04-15T11:33:54;10.26;16.00
79140;HTU21D;68546;59.142;37.948;2023-04-15T11:36:30;10.29;15.98
79140;HTU21D;68546;59.142;37.948;2023-04-15T11:38:59;10.33;16.06
79140;HTU21D;68546;59.142;37.948;2023-04-15T11:41:27;10.35;16.03
79140;HTU21D;68546;59.142;37.948;2023-04-15T11:43:55;10.38;16.06
79140;HTU21D;68546;59.142;37.948;2023-04-15T11:46:30;10.41;16.13
79140;HTU21D;68546;59.142;37.948;2023-04-15T11:48:58;10.44;16.19
79140;HTU21D;68546;59.142;37.948;2023-04-15T11:51:31;10.50;16.05
79140;HTU21D;68546;59.142;37.948;2023-04-15T11:53:58;10.52;16.09
79140;HTU21D;68546;59.142;37.948;2023-04-15T11:56:25;10.54;16.03
79140;HTU21D;68546;59.142;37.948;2023-04-15T11:58:57;10.58;16.04
79140;HTU21D;68546;59.142;37.948;2023-04-15T12:01:35;10.62;16.01
79140;HTU21D;68546;59.142;37.948;2023-04-15T12:04:01;10.64;16.03
79140;HTU21D;68546;59.142;37.948;2023-04-15T12:06:35;10.68;16.03
79140;HTU21D;68546;59.142;37.948;2023-04-15T12:09:16;10.71;16.04
79140;HTU21D;68546;59.142;37.948;2023-04-15T12:11:51;10.73;15.91
79140;HTU21D;68546;59.142;37.948;2023-04-15T12:19:29;10.81;15.84
79140;HTU21D;68546;59.142;37.948;2023-04-15T12:22:00;10.86;15.97
79140;HTU21D;68546;59.142;37.948;2023-04-15T12:24:30;10.87;15.90
79140;HTU21D;68546;59.142;37.948;2023-04-15T12:27:04;10.94;15.93
79140;HTU21D;68546;59.142;37.948;2023-04-15T12:29:32;10.98;15.94
79140;HTU21D;68546;59.142;37.948;2023-04-15T12:32:11;11.02;15.82
79140;HTU21D;68546;59.142;37.948;2023-04-15T12:34:49;11.05;15.80
79140;HTU21D;68546;59.142;37.948;2023-04-15T12:37:15;11.09;15.80
79140;HTU21D;68546;59.142;37.948;2023-04-15T12:39:44;11.12;15.71
79140;HTU21D;68546;59.142;37.948;2023-04-15T12:42:11;11.15;15.78
79140;HTU21D;68546;59.142;37.948;2023-04-15T12:44:38;11.18;15.72
79140;HTU21D;68546;59.142;37.948;2023-04-15T12:47:06;11.22;15.70
79140;HTU21D;68546;59.142;37.948;2023-04-15T12:49:33;11.24;15.67
79140;HTU21D;68546;59.142;37.948;2023-04-15T12:52:00;11.26;15.64
79140;HTU21D;68546;59.142;37.948;2023-04-15T12:54:28;11.29;15.61
79140;HTU21D;68546;59.142;37.948;2023-04-15T12:56:55;11.32;15.58
79140;HTU21D;68546;59.142;37.948;2023-04-15T12:59:22;11.34;15.49
79140;HTU21D;68546;59.142;37.948;2023-04-15T13:01:52;11.34;15.50
79140;HTU21D;68546;59.142;37.948;2023-04-15T13:04:19;11.38;15.48
79140;HTU21D;68546;59.142;37.948;2023-04-15T13:06:45;11.41;15.48
79140;HTU21D;68546;59.142;37.948;2023-04-15T13:09:12;11.43;15.41
79140;HTU21D;68546;59.142;37.948;2023-04-15T13:11:38;11.45;15.38
79140;HTU21D;68546;59.142;37.948;2023-04-15T13:14:07;11.48;15.21
79140;HTU21D;68546;59.142;37.948;2023-04-15T13:16:33;11.49;15.29
79140;HTU21D;68546;59.142;37.948;2023-04-15T13:19:01;11.52;15.23
79140;HTU21D;68546;59.142;37.948;2023-04-15T13:21:29;11.53;15.28
79140;HTU21D;68546;59.142;37.948;2023-04-15T13:23:59;11.55;15.24
79140;HTU21D;68546;59.142;37.948;2023-04-15T13:26:26;11.56;15.25
79140;HTU21D;68546;59.142;37.948;2023-04-15T13:28:53;11.58;15.13
79140;HTU21D;68546;59.142;37.948;2023-04-15T13:31:19;11.60;15.11
79140;HTU21D;68546;59.142;37.948;2023-04-15T13:33:45;11.60;15.03
79140;HTU21D;68546;59.142;37.948;2023-04-15T13:36:12;11.60;15.04
79140;HTU21D;68546;59.142;37.948;2023-04-15T13:38:38;11.61;14.99
79140;HTU21D;68546;59.142;37.948;2023-04-15T13:41:04;11.61;15.03
79140;HTU21D;68546;59.142;37.948;2023-04-15T13:43:31;11.62;15.06
79140;HTU21D;68546;59.142;37.948;2023-04-15T13:45:59;11.62;15.05
79140;HTU21D;68546;59.142;37.948;2023-04-15T13:48:25;11.62;14.99
79140;HTU21D;68546;59.142;37.948;2023-04-15T13:50:51;11.61;15.04
79140;HTU21D;68546;59.142;37.948;2023-04-15T13:53:18;11.61;14.96
79140;HTU21D;68546;59.142;37.948;2023-04-15T13:55:44;11.58;14.95
79140;HTU21D;68546;59.142;37.948;2023-04-15T13:58:11;11.57;14.90
79140;HTU21D;68546;59.142;37.948;2023-04-15T14:00:37;11.55;14.95
79140;HTU21D;68546;59.142;37.948;2023-04-15T14:03:04;11.54;15.01
79140;HTU21D;68546;59.142;37.948;2023-04-15T14:05:30;11.55;14.99
79140;HTU21D;68546;59.142;37.948;2023-04-15T14:07:58;11.54;14.90
79140;HTU21D;68546;59.142;37.948;2023-04-15T14:10:26;11.53;14.94
79140;HTU21D;68546;59.142;37.948;2023-04-15T14:12:52;11.51;15.00
79140;HTU21D;68546;59.142;37.948;2023-04-15T14:15:19;11.51;14.94
79140;HTU21D;68546;59.142;37.948;2023-04-15T14:17:46;11.49;14.95
79140;HTU21D;68546;59.142;37.948;2023-04-15T14:20:12;11.48;15.00
79140;HTU21D;68546;59.142;37.948;2023-04-15T14:22:38;11.47;15.03
79140;HTU21D;68546;59.142;37.948;2023-04-15T14:25:05;11.46;15.14
79140;HTU21D;68546;59.142;37.948;2023-04-15T14:27:32;11.46;15.14
79140;HTU21D;68546;59.142;37.948;2023-04-15T14:29:59;11.45;15.22
79140;HTU21D;68546;59.142;37.948;2023-04-15T14:32:26;11.44;15.30
79140;HTU21D;68546;59.142;37.948;2023-04-15T14:34:52;11.44;15.31
79140;HTU21D;68546;59.142;37.948;2023-04-15T14:37:21;11.46;15.33
79140;HTU21D;68546;59.142;37.948;2023-04-15T14:39:47;11.46;15.35
79140;HTU21D;68546;59.142;37.948;2023-04-15T14:42:13;11.46;15.45
79140;HTU21D;68546;59.142;37.948;2023-04-15T14:44:39;11.45;15.48
79140;HTU21D;68546;59.142;37.948;2023-04-15T14:47:06;11.45;15.55
79140;HTU21D;68546;59.142;37.948;2023-04-15T14:49:32;11.46;15.53
79140;HTU21D;68546;59.142;37.948;2023-04-15T14:51:58;11.46;15.57
79140;HTU21D;68546;59.142;37.948;2023-04-15T14:54:25;11.45;15.55
79140;HTU21D;68546;59.142;37.948;2023-04-15T14:56:51;11.46;15.61
79140;HTU21D;68546;59.142;37.948;2023-04-15T14:59:18;11.46;15.59
79140;HTU21D;68546;59.142;37.948;2023-04-15T15:01:44;11.46;15.64
79140;HTU21D;68546;59.142;37.948;2023-04-15T15:04:11;11.47;15.70
79140;HTU21D;68546;59.142;37.948;2023-04-15T15:06:40;11.48;15.74
79140;HTU21D;68546;59.142;37.948;2023-04-15T15:09:08;11.49;15.75
79140;HTU21D;68546;59.142;37.948;2023-04-15T15:11:34;11.49;15.77
79140;HTU21D;68546;59.142;37.948;2023-04-15T15:14:01;11.49;15.80
79140;HTU21D;68546;59.142;37.948;2023-04-15T15:16:27;11.48;15.84
79140;HTU21D;68546;59.142;37.948;2023-04-15T15:18:54;11.48;15.91
79140;HTU21D;68546;59.142;37.948;2023-04-15T15:21:21;11.49;15.93
79140;HTU21D;68546;59.142;37.948;2023-04-15T15:23:47;11.48;15.94
79140;HTU21D;68546;59.142;37.948;2023-04-15T15:26:22;11.47;15.94
79140;HTU21D;68546;59.142;37.948;2023-04-15T15:28:49;11.46;15.99